Evergem, Belgium
Current Conditions -  °F | °C
As of 8:55 AM on Friday 24 Oct 2014 (Local Time) from EHFS Reporting Station
Overcast Overcast  
Wind Chill: 12°   Ceiling: 1700
Heat Index: 12°   Visibility: 6mi
Dew Point: 11°   Wind: 20mph
Humidity: 94%   Direction: 180°S
Pressure: 30.03"   Gusts: NA
Location:  51.11°N, 3.7°E
Report Text: EHFS 240655Z AUTO 18017KT 9999 BKN017/// BKN022/// OVC031///12/11 Q1017
Loading
Personal Weather Stations






























Interactive Weather Map
Tropical Storm Tracking
New forecast layout! Learn more

10-Day Weather Forecast

Advertisements
Track Severe Weather on mobile